Time;durP1;ratioP1;P1;durP2;ratioP2;P2;SDS_P1;SDS_P2;PMS_P1;PMS_P2;Temp;Humidity;BMP_temperature;BMP_pressure;BME280_temperature;BME280_humidity;BME280_pressure;Samples;Min_cycle;Max_cycle;Signal;HPM_P1;HPM_P2
2023/03/10 00:00:15;;;;;;;31.02;21.15;;;2.30;1.00;;;;;;5137188;27;20874;-78
2023/03/10 00:02:48;;;;;;;35.35;21.08;;;2.40;1.00;;;;;;5139358;27;20238;-79
2023/03/10 00:05:16;;;;;;;31.65;22.80;;;2.40;1.00;;;;;;5136614;27;20597;-79
2023/03/10 00:07:49;;;;;;;32.58;21.77;;;2.40;1.00;;;;;;5138771;27;20628;-79
2023/03/10 00:10:17;;;;;;;31.60;21.52;;;2.40;1.00;;;;;;5141597;27;20299;-79
2023/03/10 00:12:44;;;;;;;29.55;21.20;;;2.30;1.00;;;;;;5135526;27;20393;-78
2023/03/10 00:15:11;;;;;;;29.27;20.45;;;2.30;1.00;;;;;;5137888;27;20327;-79
2023/03/10 00:17:38;;;;;;;27.38;19.90;;;2.40;1.00;;;;;;5135060;27;20321;-79
2023/03/10 00:20:10;;;;;;;35.08;24.35;;;2.40;1.00;;;;;;5139281;27;20258;-79
2023/03/10 00:22:37;;;;;;;32.08;22.58;;;2.40;1.00;;;;;;5139007;27;20238;-79
2023/03/10 00:25:07;;;;;;;30.27;20.65;;;2.30;1.00;;;;;;5139155;27;20234;-79
2023/03/10 00:27:34;;;;;;;36.25;22.27;;;2.20;1.00;;;;;;5139442;27;20697;-79
2023/03/10 00:30:02;;;;;;;27.52;20.20;;;2.30;1.00;;;;;;5139217;27;20253;-79
2023/03/10 00:32:29;;;;;;;31.23;19.85;;;2.20;1.00;;;;;;5140155;27;21000;-79
2023/03/10 00:34:56;;;;;;;28.73;19.55;;;2.10;1.00;;;;;;5139359;27;21917;-79
2023/03/10 00:37:23;;;;;;;27.80;19.60;;;2.20;1.00;;;;;;5138739;27;20234;-79
2023/03/10 00:39:52;;;;;;;31.65;19.95;;;2.20;1.00;;;;;;5140086;27;20281;-79
2023/03/10 00:42:20;;;;;;;30.33;20.83;;;2.10;1.00;;;;;;5140596;27;20244;-80
2023/03/10 00:44:47;;;;;;;29.80;19.27;;;2.10;1.00;;;;;;5138163;27;20238;-81
2023/03/10 00:47:14;;;;;;;31.98;19.25;;;2.10;1.00;;;;;;5139495;27;20238;-78
2023/03/10 00:49:41;;;;;;;29.75;19.85;;;2.20;1.00;;;;;;5137291;27;20259;-79
2023/03/10 00:52:08;;;;;;;29.55;20.35;;;2.20;1.00;;;;;;5135149;27;20331;-79
2023/03/10 00:54:38;;;;;;;33.30;20.48;;;2.10;1.00;;;;;;5137418;27;20249;-79
2023/03/10 00:57:05;;;;;;;34.03;21.77;;;2.20;1.00;;;;;;5136109;27;20338;-79
2023/03/10 00:59:33;;;;;;;29.27;19.95;;;2.20;1.00;;;;;;5139783;27;20244;-78
2023/03/10 01:02:00;;;;;;;30.17;19.10;;;2.20;1.00;;;;;;5140848;27;21123;-79
2023/03/10 01:04:27;;;;;;;29.92;18.85;;;2.20;1.00;;;;;;5139557;27;20303;-79
2023/03/10 01:06:54;;;;;;;30.67;20.63;;;2.30;1.00;;;;;;5132387;27;20237;-79
2023/03/10 01:09:22;;;;;;;27.77;19.77;;;2.30;1.00;;;;;;5136515;27;20238;-79
2023/03/10 01:11:49;;;;;;;25.90;18.05;;;2.30;1.00;;;;;;5140292;27;20264;-79
2023/03/10 01:14:17;;;;;;;26.75;18.77;;;2.30;1.00;;;;;;5145129;27;20325;-80
2023/03/10 01:16:45;;;;;;;26.75;19.20;;;2.20;1.00;;;;;;5140058;27;20366;-79
2023/03/10 01:19:12;;;;;;;28.75;19.92;;;2.20;1.00;;;;;;5144884;27;20249;-79
2023/03/10 01:21:39;;;;;;;31.30;20.63;;;2.20;1.00;;;;;;5136336;27;20285;-79
2023/03/10 01:24:07;;;;;;;32.10;22.17;;;2.20;1.00;;;;;;5142186;27;20270;-78
2023/03/10 01:26:34;;;;;;;28.10;19.02;;;2.20;1.00;;;;;;5138172;27;20242;-80
2023/03/10 01:29:01;;;;;;;28.35;18.65;;;2.20;1.00;;;;;;5136703;27;20239;-80
2023/03/10 01:31:28;;;;;;;27.30;18.98;;;2.20;1.00;;;;;;5135666;27;21024;-79
2023/03/10 01:33:57;;;;;;;25.25;16.83;;;2.10;1.00;;;;;;5136250;27;20296;-80
2023/03/10 01:36:25;;;;;;;29.95;18.90;;;2.10;1.00;;;;;;5135503;27;20288;-79
2023/03/10 01:38:53;;;;;;;28.20;17.45;;;2.20;1.00;;;;;;5131604;27;20234;-79
2023/03/10 01:41:21;;;;;;;28.27;18.60;;;2.20;1.00;;;;;;5138662;27;20321;-81
2023/03/10 01:43:49;;;;;;;26.15;18.67;;;2.20;1.00;;;;;;5136139;27;20230;-79
2023/03/10 01:46:37;;;;;;;22.50;16.50;;;2.20;1.00;;;;;;5138850;27;20765;-79
2023/03/10 01:49:10;;;;;;;25.02;16.67;;;2.20;1.00;;;;;;5135818;27;20264;-79
2023/03/10 01:51:39;;;;;;;29.63;18.45;;;2.20;1.00;;;;;;5137814;27;20238;-79
2023/03/10 01:54:14;;;;;;;25.05;16.45;;;2.10;1.00;;;;;;5140770;27;20238;-79
2023/03/10 01:56:42;;;;;;;23.55;16.58;;;2.10;1.00;;;;;;5135158;27;20237;-79
2023/03/10 01:59:10;;;;;;;27.70;18.00;;;2.00;1.00;;;;;;5134735;27;23135;-80
2023/03/10 02:01:37;;;;;;;25.25;16.83;;;2.10;1.00;;;;;;5137120;27;20341;-80
2023/03/10 02:04:11;;;;;;;22.92;16.73;;;2.10;1.00;;;;;;5138505;27;20296;-80
2023/03/10 02:06:40;;;;;;;24.55;16.17;;;2.10;1.00;;;;;;5136073;27;20290;-80
2023/03/10 02:09:09;;;;;;;26.80;17.52;;;2.10;1.00;;;;;;5136951;27;21636;-79
2023/03/10 02:11:38;;;;;;;24.15;18.05;;;2.10;1.00;;;;;;5131078;27;20239;-79
2023/03/10 02:14:05;;;;;;;26.42;16.63;;;2.20;1.00;;;;;;5135440;27;20321;-79
2023/03/10 02:16:32;;;;;;;29.83;19.00;;;2.20;1.00;;;;;;5122068;27;20234;-79
2023/03/10 02:18:59;;;;;;;27.38;17.30;;;2.20;1.00;;;;;;5138244;27;20347;-80
2023/03/10 02:21:39;;;;;;;27.40;18.17;;;2.20;1.00;;;;;;5133935;27;20328;-79
2023/03/10 02:24:18;;;;;;;24.33;16.65;;;2.30;1.00;;;;;;5135557;27;20280;-80
2023/03/10 02:26:52;;;;;;;24.30;17.23;;;2.30;1.00;;;;;;5138139;27;20229;-79
2023/03/10 02:29:28;;;;;;;29.50;18.13;;;2.40;1.00;;;;;;5132518;27;20307;-80
2023/03/10 02:31:56;;;;;;;24.38;16.45;;;2.40;1.00;;;;;;5137918;27;20226;-79
2023/03/10 02:34:23;;;;;;;25.08;16.40;;;2.40;1.00;;;;;;5133771;27;20315;-80
2023/03/10 02:36:50;;;;;;;23.70;16.38;;;2.40;1.00;;;;;;5133078;27;20321;-80
2023/03/10 02:39:17;;;;;;;23.38;17.50;;;2.40;1.00;;;;;;5140640;27;20234;-80
2023/03/10 02:41:45;;;;;;;22.75;15.85;;;2.40;1.00;;;;;;5137071;27;20241;-80
2023/03/10 02:44:16;;;;;;;23.42;17.13;;;2.50;1.00;;;;;;5136064;27;20241;-80
2023/03/10 02:46:47;;;;;;;22.98;16.70;;;2.40;1.00;;;;;;5132787;27;20241;-80
2023/03/10 02:49:13;;;;;;;22.42;16.73;;;2.20;1.00;;;;;;5137367;27;20344;-80
2023/03/10 02:51:43;;;;;;;22.48;14.70;;;2.20;1.00;;;;;;5134104;27;20242;-80
2023/03/10 02:54:11;;;;;;;24.00;16.17;;;2.30;1.00;;;;;;5137678;27;20300;-81
2023/03/10 02:56:38;;;;;;;21.00;14.23;;;2.30;1.00;;;;;;5141901;27;20244;-80
2023/03/10 02:59:06;;;;;;;20.17;15.35;;;2.40;1.00;;;;;;5137934;27;21130;-79
2023/03/10 03:01:34;;;;;;;22.40;15.27;;;2.40;1.00;;;;;;5133724;27;20315;-79
2023/03/10 03:04:03;;;;;;;18.40;14.68;;;2.30;1.00;;;;;;5135374;27;20292;-80
2023/03/10 03:06:33;;;;;;;24.38;15.63;;;2.20;1.00;;;;;;5130916;27;20245;-80
2023/03/10 03:08:59;;;;;;;23.90;15.48;;;2.20;1.00;;;;;;5134657;27;20238;-80
2023/03/10 03:11:26;;;;;;;20.35;14.52;;;2.30;1.00;;;;;;5137322;27;20314;-80
2023/03/10 03:13:54;;;;;;;21.73;15.20;;;2.30;1.00;;;;;;5136345;27;20376;-80
2023/03/10 03:16:21;;;;;;;20.67;14.88;;;2.20;1.00;;;;;;5137281;27;21048;-81
2023/03/10 03:18:48;;;;;;;21.85;15.00;;;2.30;1.00;;;;;;5138844;27;20764;-80
2023/03/10 03:21:16;;;;;;;20.05;14.35;;;2.30;1.00;;;;;;5138573;27;20289;-81
2023/03/10 03:23:45;;;;;;;22.05;14.10;;;2.30;1.00;;;;;;5138023;27;20282;-81
2023/03/10 03:26:16;;;;;;;29.45;15.50;;;2.30;1.00;;;;;;5133772;27;20253;-80
2023/03/10 03:28:45;;;;;;;21.65;14.30;;;2.20;1.00;;;;;;5134434;27;20329;-79
2023/03/10 03:31:17;;;;;;;22.45;15.43;;;2.20;1.00;;;;;;5132396;27;20234;-80
2023/03/10 03:33:44;;;;;;;19.52;14.23;;;2.30;1.00;;;;;;5134676;27;20984;-80
2023/03/10 03:36:12;;;;;;;20.60;13.68;;;2.20;1.00;;;;;;5131891;27;21108;-80
2023/03/10 03:38:43;;;;;;;16.90;13.05;;;2.30;1.00;;;;;;5134094;27;20241;-80
2023/03/10 03:41:10;;;;;;;32.22;22.70;;;2.30;1.00;;;;;;5138688;27;20244;-80
2023/03/10 03:43:37;;;;;;;16.65;13.00;;;2.30;1.00;;;;;;5133032;27;20352;-80
2023/03/10 03:46:07;;;;;;;16.55;12.65;;;2.30;1.00;;;;;;5143921;27;20722;-81
2023/03/10 03:48:34;;;;;;;16.27;12.05;;;2.30;1.00;;;;;;5137171;27;20941;-81
2023/03/10 03:51:02;;;;;;;16.23;12.75;;;2.40;1.00;;;;;;5129323;27;20300;-79
2023/03/10 03:53:29;;;;;;;16.02;12.93;;;2.30;1.00;;;;;;5123641;27;20238;-81
2023/03/10 03:55:58;;;;;;;19.60;14.70;;;2.30;1.00;;;;;;5134240;27;20238;-81
2023/03/10 03:58:25;;;;;;;17.35;12.75;;;2.20;1.00;;;;;;5138659;27;20708;-81
2023/03/10 04:00:52;;;;;;;15.57;11.35;;;2.30;1.00;;;;;;5135745;27;20779;-81
2023/03/10 04:03:19;;;;;;;17.52;12.32;;;2.30;1.00;;;;;;5135476;27;20242;-80
2023/03/10 04:05:46;;;;;;;15.75;12.07;;;2.30;1.00;;;;;;5134033;27;20226;-80
2023/03/10 04:08:14;;;;;;;14.88;11.27;;;2.30;1.00;;;;;;5133486;27;20708;-81
2023/03/10 04:10:43;;;;;;;17.98;12.00;;;2.30;1.00;;;;;;5135707;27;20312;-80
2023/03/10 04:13:11;;;;;;;14.63;10.43;;;2.30;1.00;;;;;;5135121;27;20338;-80
2023/03/10 04:15:38;;;;;;;14.75;10.85;;;2.20;1.00;;;;;;5134794;27;20230;-80
2023/03/10 04:18:05;;;;;;;19.65;13.13;;;2.30;1.00;;;;;;5130845;27;20270;-79
2023/03/10 04:20:32;;;;;;;14.98;11.77;;;2.30;1.00;;;;;;5137106;27;20324;-79
2023/03/10 04:23:00;;;;;;;14.65;11.48;;;2.30;1.00;;;;;;5133843;27;20320;-80
2023/03/10 04:25:27;;;;;;;14.35;11.30;;;2.30;1.00;;;;;;5130776;27;20869;-81
2023/03/10 04:27:54;;;;;;;12.98;10.65;;;2.40;1.00;;;;;;5136493;27;21219;-79
2023/03/10 04:30:28;;;;;;;13.63;11.32;;;2.40;1.00;;;;;;5136203;27;20239;-80
2023/03/10 04:32:57;;;;;;;13.90;10.55;;;2.40;1.00;;;;;;5128909;27;20237;-80
2023/03/10 04:35:24;;;;;;;14.23;10.90;;;2.40;1.00;;;;;;5134081;27;20345;-80
2023/03/10 04:37:51;;;;;;;20.05;13.07;;;2.50;1.00;;;;;;5137243;27;21779;-81
2023/03/10 04:40:18;;;;;;;13.88;11.82;;;2.50;1.00;;;;;;5130332;27;20826;-79
2023/03/10 04:42:45;;;;;;;15.57;11.82;;;2.40;1.00;;;;;;5133715;27;20237;-79
2023/03/10 04:45:13;;;;;;;16.75;12.55;;;2.40;1.00;;;;;;5136108;27;20235;-79
2023/03/10 04:47:41;;;;;;;14.63;10.65;;;2.40;1.00;;;;;;5136099;27;20254;-79
2023/03/10 04:50:10;;;;;;;14.23;11.32;;;2.50;1.00;;;;;;5129864;27;20347;-79
2023/03/10 04:52:37;;;;;;;15.20;11.07;;;2.50;1.00;;;;;;5129565;27;20329;-80
2023/03/10 04:55:04;;;;;;;20.02;12.95;;;2.50;1.00;;;;;;5132233;27;20970;-79
2023/03/10 04:57:31;;;;;;;15.95;12.45;;;2.60;1.00;;;;;;5130914;27;20243;-80
2023/03/10 04:59:58;;;;;;;17.27;12.45;;;2.70;1.00;;;;;;5133896;27;20243;-79
2023/03/10 05:02:27;;;;;;;14.52;11.10;;;2.60;1.00;;;;;;5127947;27;20241;-81
2023/03/10 05:04:57;;;;;;;15.88;11.93;;;2.60;1.00;;;;;;5126347;27;20915;-80
2023/03/10 05:07:26;;;;;;;14.88;12.27;;;2.60;1.00;;;;;;5136229;27;20311;-80
2023/03/10 05:09:53;;;;;;;15.20;12.20;;;2.60;1.00;;;;;;5135246;27;20233;-80
2023/03/10 05:12:20;;;;;;;31.85;24.88;;;2.60;1.00;;;;;;5137848;27;20278;-80
2023/03/10 05:14:47;;;;;;;14.50;11.68;;;2.60;1.00;;;;;;5136872;27;21060;-79
2023/03/10 05:17:14;;;;;;;16.27;12.15;;;2.60;1.00;;;;;;5132852;27;20306;-81
2023/03/10 05:19:41;;;;;;;15.90;11.98;;;2.60;1.00;;;;;;5140951;27;20324;-80
2023/03/10 05:22:11;;;;;;;15.55;12.55;;;2.60;1.00;;;;;;5140813;27;20238;-80
2023/03/10 05:24:38;;;;;;;18.77;13.10;;;2.50;1.00;;;;;;5142775;27;20313;-80
2023/03/10 05:27:07;;;;;;;18.25;12.50;;;2.60;1.00;;;;;;5139149;27;20243;-80
2023/03/10 05:29:34;;;;;;;16.88;12.95;;;2.60;1.00;;;;;;5139499;27;21056;-80
2023/03/10 05:32:01;;;;;;;14.30;12.75;;;2.60;1.00;;;;;;5134497;27;20238;-80
2023/03/10 05:34:27;;;;;;;16.20;13.50;;;2.60;1.00;;;;;;5135278;27;20778;-80
2023/03/10 05:36:55;;;;;;;14.70;11.93;;;2.60;1.00;;;;;;5138458;27;20265;-79
2023/03/10 05:39:23;;;;;;;19.55;15.82;;;2.60;1.00;;;;;;5127895;27;20280;-81
2023/03/10 05:41:50;;;;;;;20.05;13.73;;;2.70;1.00;;;;;;5134464;27;20230;-80
2023/03/10 05:44:17;;;;;;;15.30;12.02;;;2.70;1.00;;;;;;5135544;27;20241;-84
2023/03/10 05:46:44;;;;;;;15.93;11.85;;;2.80;1.00;;;;;;5136173;27;20353;-80
2023/03/10 05:49:11;;;;;;;15.15;12.85;;;2.90;1.00;;;;;;5137328;27;20733;-79
2023/03/10 05:51:38;;;;;;;14.85;12.60;;;2.90;1.00;;;;;;5134909;27;20332;-80
2023/03/10 05:54:05;;;;;;;14.85;11.07;;;2.90;1.00;;;;;;5136257;27;20231;-78
2023/03/10 05:56:36;;;;;;;13.43;10.40;;;3.00;1.00;;;;;;5132996;27;20238;-78
2023/03/10 05:59:05;;;;;;;14.65;11.77;;;3.00;1.00;;;;;;5142211;27;20234;-78
2023/03/10 06:01:32;;;;;;;13.35;11.30;;;3.00;1.00;;;;;;5130452;27;20237;-79
2023/03/10 06:03:59;;;;;;;15.60;11.27;;;3.00;1.00;;;;;;5134455;27;20258;-78
2023/03/10 06:06:27;;;;;;;16.50;10.90;;;3.00;1.00;;;;;;5135010;27;20247;-78
2023/03/10 06:08:54;;;;;;;16.35;11.00;;;3.00;1.00;;;;;;5143711;27;20321;-76
2023/03/10 06:11:21;;;;;;;15.40;11.15;;;3.10;1.00;;;;;;5140437;27;20235;-76
2023/03/10 06:13:49;;;;;;;13.23;10.40;;;3.10;1.00;;;;;;5140832;27;21240;-76
2023/03/10 06:16:16;;;;;;;15.88;13.00;;;3.20;1.00;;;;;;5137695;27;20249;-75
2023/03/10 06:18:43;;;;;;;15.48;10.82;;;3.30;1.00;;;;;;5137961;27;22819;-76
2023/03/10 06:21:13;;;;;;;19.23;12.27;;;3.30;1.00;;;;;;5137503;27;20328;-75
2023/03/10 06:23:40;;;;;;;16.98;12.82;;;3.30;1.00;;;;;;5135821;27;20257;-76
2023/03/10 06:26:09;;;;;;;15.25;11.50;;;3.30;1.00;;;;;;5136760;27;20697;-76
2023/03/10 06:28:40;;;;;;;17.35;14.48;;;3.40;1.00;;;;;;5134465;27;20341;-76
2023/03/10 06:31:09;;;;;;;14.27;11.15;;;3.40;1.00;;;;;;5138789;27;21010;-76
2023/03/10 06:33:37;;;;;;;15.10;12.32;;;3.50;1.00;;;;;;5137767;27;21150;-76
2023/03/10 06:36:05;;;;;;;13.63;11.55;;;3.50;1.00;;;;;;5139607;27;22084;-76
2023/03/10 06:38:32;;;;;;;14.68;11.50;;;3.50;1.00;;;;;;5123431;27;20306;-75
2023/03/10 06:40:59;;;;;;;13.23;11.35;;;3.60;1.00;;;;;;5160336;27;20677;-76
2023/03/10 06:43:26;;;;;;;13.75;11.68;;;3.60;1.00;;;;;;5132806;27;20238;-78
2023/03/10 06:45:53;;;;;;;15.18;12.50;;;3.70;1.00;;;;;;5141854;27;20638;-76
2023/03/10 06:48:22;;;;;;;17.95;14.35;;;3.70;1.00;;;;;;5139476;27;20322;-76
2023/03/10 06:50:49;;;;;;;22.08;13.95;;;3.70;1.00;;;;;;5132674;27;20242;-78
2023/03/10 06:53:18;;;;;;;16.33;13.48;;;3.60;1.00;;;;;;5141217;27;20234;-79
2023/03/10 06:55:45;;;;;;;14.23;12.52;;;3.60;1.00;;;;;;5140154;27;20323;-76
2023/03/10 06:58:12;;;;;;;15.38;12.77;;;3.60;1.00;;;;;;5134728;27;20237;-75
2023/03/10 07:00:39;;;;;;;17.92;13.32;;;3.70;1.00;;;;;;5130587;27;20338;-75
2023/03/10 07:03:06;;;;;;;16.00;13.45;;;3.70;1.00;;;;;;5130671;27;20325;-75
2023/03/10 07:05:34;;;;;;;16.42;13.25;;;3.70;1.00;;;;;;5126240;27;20234;-75
2023/03/10 07:08:01;;;;;;;19.92;14.52;;;3.90;1.00;;;;;;5142452;27;20372;-76
2023/03/10 07:10:28;;;;;;;15.35;12.75;;;3.90;1.00;;;;;;5135475;27;20241;-77
2023/03/10 07:12:57;;;;;;;14.10;11.45;;;3.90;1.00;;;;;;5133486;27;21140;-75
2023/03/10 07:15:25;;;;;;;15.73;11.82;;;3.80;1.00;;;;;;5138585;27;20235;-75
2023/03/10 07:17:54;;;;;;;16.55;12.55;;;3.70;1.00;;;;;;5141843;27;20288;-77
2023/03/10 07:20:22;;;;;;;16.27;12.77;;;3.60;1.00;;;;;;5142986;27;20341;-79
2023/03/10 07:22:52;;;;;;;15.52;12.43;;;3.60;1.00;;;;;;5147238;27;20230;-80
2023/03/10 07:25:19;;;;;;;17.70;14.63;;;3.70;1.00;;;;;;5146146;27;20234;-79
2023/03/10 07:27:46;;;;;;;16.02;13.27;;;3.70;1.00;;;;;;5139753;27;20318;-82
2023/03/10 07:30:14;;;;;;;14.20;12.48;;;3.70;1.00;;;;;;5138705;27;20291;-79
2023/03/10 07:32:43;;;;;;;14.27;12.25;;;3.70;1.00;;;;;;5139193;27;21084;-80
2023/03/10 07:35:10;;;;;;;16.15;11.88;;;3.70;1.00;;;;;;5134408;27;20237;-78
2023/03/10 07:37:38;;;;;;;14.57;12.85;;;3.60;1.00;;;;;;5141550;27;21741;-79
2023/03/10 07:40:09;;;;;;;17.40;13.77;;;3.80;1.00;;;;;;5140846;27;20422;-79
2023/03/10 07:42:36;;;;;;;15.48;12.70;;;3.90;1.00;;;;;;5137127;27;20229;-78
2023/03/10 07:45:03;;;;;;;13.43;11.65;;;4.00;1.00;;;;;;5121575;27;20333;-80
2023/03/10 07:47:30;;;;;;;14.75;13.07;;;4.00;1.00;;;;;;5135793;27;20249;-80
2023/03/10 07:49:57;;;;;;;13.32;11.20;;;4.00;1.00;;;;;;5142526;27;20701;-81
2023/03/10 07:52:24;;;;;;;19.70;15.32;;;4.00;1.00;;;;;;5144574;27;20238;-80
2023/03/10 07:54:51;;;;;;;15.10;12.50;;;4.10;1.00;;;;;;5136034;27;20317;-81
2023/03/10 07:57:19;;;;;;;18.30;13.35;;;4.00;1.00;;;;;;5137183;27;20327;-80
2023/03/10 07:59:47;;;;;;;15.95;12.68;;;4.10;1.00;;;;;;5135774;27;22632;-79
2023/03/10 08:02:15;;;;;;;15.50;13.70;;;4.20;1.00;;;;;;5135558;27;20439;-82
2023/03/10 08:04:42;;;;;;;18.00;16.10;;;4.30;1.00;;;;;;5135316;27;21056;-81
2023/03/10 08:07:10;;;;;;;14.77;12.63;;;4.50;1.00;;;;;;5135497;27;20245;-80
2023/03/10 08:09:37;;;;;;;15.55;12.77;;;4.50;1.00;;;;;;5134247;27;20244;-80
2023/03/10 08:12:04;;;;;;;14.75;12.30;;;4.50;1.00;;;;;;5133786;27;20283;-79
2023/03/10 08:14:33;;;;;;;15.70;13.57;;;4.50;1.00;;;;;;5137699;27;20523;-80
2023/03/10 08:17:00;;;;;;;13.27;11.88;;;4.50;1.00;;;;;;5133003;27;20431;-80
2023/03/10 08:19:28;;;;;;;15.20;11.40;;;4.70;1.00;;;;;;5137502;27;20908;-80
2023/03/10 08:21:56;;;;;;;15.65;14.05;;;4.70;1.00;;;;;;5137427;27;20375;-80
2023/03/10 08:24:23;;;;;;;13.20;11.80;;;4.90;1.00;;;;;;5137010;27;20239;-81
2023/03/10 08:26:50;;;;;;;14.38;12.70;;;5.20;1.00;;;;;;5131010;27;20245;-80
2023/03/10 08:29:17;;;;;;;14.77;11.90;;;5.40;1.00;;;;;;5137658;27;20310;-79
2023/03/10 08:31:46;;;;;;;16.45;13.65;;;5.50;1.00;;;;;;5135565;27;20345;-78
2023/03/10 08:34:13;;;;;;;14.52;12.60;;;5.40;1.00;;;;;;5136906;27;20582;-79
2023/03/10 08:36:41;;;;;;;14.43;12.25;;;5.40;1.00;;;;;;5144220;27;20236;-79
2023/03/10 08:39:08;;;;;;;15.88;11.52;;;5.40;1.00;;;;;;5139933;27;20245;-79
2023/03/10 08:41:37;;;;;;;16.30;13.00;;;5.30;1.00;;;;;;5136620;27;20262;-79
2023/03/10 08:44:05;;;;;;;14.55;12.20;;;5.30;1.00;;;;;;5136017;27;20237;-79
2023/03/10 08:46:33;;;;;;;14.32;12.88;;;5.40;1.00;;;;;;5138758;27;20325;-80
2023/03/10 08:49:01;;;;;;;13.55;12.02;;;5.50;1.00;;;;;;5139399;27;20316;-79
2023/03/10 08:51:30;;;;;;;14.82;13.18;;;5.60;1.00;;;;;;5137030;27;20234;-79
2023/03/10 08:54:00;;;;;;;15.80;14.15;;;5.60;1.00;;;;;;5136901;27;20267;-78
2023/03/10 08:56:28;;;;;;;15.93;12.77;;;5.60;1.00;;;;;;5135004;27;20626;-79
2023/03/10 08:58:57;;;;;;;13.30;12.00;;;5.70;1.00;;;;;;5132639;27;20295;-79
2023/03/10 09:01:27;;;;;;;17.42;15.27;;;5.70;1.00;;;;;;5144340;27;20612;-80
2023/03/10 09:03:53;;;;;;;14.07;12.40;;;6.00;1.00;;;;;;5128469;27;21045;-79
2023/03/10 09:06:23;;;;;;;16.30;12.95;;;6.10;1.00;;;;;;5133819;27;20241;-79
2023/03/10 09:08:52;;;;;;;15.13;13.05;;;6.30;1.00;;;;;;5135485;27;20257;-75
2023/03/10 09:11:25;;;;;;;16.15;13.30;;;6.40;1.00;;;;;;5136212;27;20326;-80
2023/03/10 09:13:53;;;;;;;19.40;13.60;;;6.50;1.00;;;;;;5135265;27;20320;-81
2023/03/10 09:16:20;;;;;;;15.80;12.85;;;6.80;1.00;;;;;;5138553;27;20234;-82
2023/03/10 09:18:47;;;;;;;16.03;13.10;;;7.00;1.00;;;;;;5140640;27;20370;-80
2023/03/10 09:21:16;;;;;;;16.17;14.47;;;7.50;1.00;;;;;;5135570;27;20620;-80
2023/03/10 09:23:47;;;;;;;15.73;14.23;;;7.80;1.00;;;;;;5135039;27;20464;-80
2023/03/10 09:26:15;;;;;;;16.67;14.87;;;7.70;1.00;;;;;;5144805;27;20514;-81
2023/03/10 09:28:42;;;;;;;16.67;14.85;;;7.60;1.00;;;;;;5136397;27;20443;-77
2023/03/10 09:31:16;;;;;;;18.95;14.82;;;7.50;1.00;;;;;;5131580;27;20316;-77
2023/03/10 09:33:44;;;;;;;17.23;15.48;;;7.20;1.00;;;;;;5123672;27;20235;-79
2023/03/10 09:36:12;;;;;;;18.92;16.70;;;7.40;1.00;;;;;;5127561;27;20856;-78
2023/03/10 09:38:40;;;;;;;16.90;15.02;;;7.40;1.00;;;;;;5141466;27;20317;-80
2023/03/10 09:41:34;;;;;;;17.13;15.53;;;7.30;1.00;;;;;;5134548;27;20891;-79
2023/03/10 09:44:07;;;;;;;17.80;15.90;;;7.50;1.00;;;;;;5138957;27;20445;-80
2023/03/10 09:46:45;;;;;;;17.13;15.20;;;7.60;1.00;;;;;;5137607;27;20467;-80
2023/03/10 09:49:18;;;;;;;18.57;14.43;;;7.80;1.00;;;;;;5133176;27;20512;-81
2023/03/10 09:51:50;;;;;;;21.97;15.07;;;8.20;1.00;;;;;;5141549;27;20525;-82
2023/03/10 09:54:39;;;;;;;17.53;15.80;;;8.30;1.00;;;;;;5144131;27;20427;-80
2023/03/10 09:57:16;;;;;;;16.47;14.70;;;8.60;1.00;;;;;;5136482;27;20470;-81
2023/03/10 09:59:47;;;;;;;18.53;14.47;;;8.70;1.00;;;;;;5137747;27;20455;-79
2023/03/10 10:02:20;;;;;;;19.10;16.93;;;8.70;1.00;;;;;;5147636;27;20460;-81
2023/03/10 10:04:52;;;;;;;18.07;15.83;;;8.70;1.00;;;;;;5145803;27;20467;-82
2023/03/10 10:07:22;;;;;;;18.87;15.20;;;8.60;1.00;;;;;;5148236;27;20499;-80
2023/03/10 10:09:54;;;;;;;16.90;15.10;;;8.60;1.00;;;;;;5149322;27;20468;-79
2023/03/10 10:12:25;;;;;;;17.13;15.10;;;8.80;1.00;;;;;;5149546;27;20230;-79
2023/03/10 10:14:57;;;;;;;18.93;16.97;;;9.10;1.00;;;;;;5149650;27;20532;-80
2023/03/10 10:17:35;;;;;;;22.90;20.60;;;9.20;1.00;;;;;;5147368;27;20463;-81
2023/03/10 10:20:07;;;;;;;18.73;16.60;;;9.30;1.00;;;;;;5140699;27;20452;-81
2023/03/10 10:22:36;;;;;;;18.23;16.33;;;9.30;1.00;;;;;;5143177;27;20457;-80
2023/03/10 10:25:16;;;;;;;20.37;17.10;;;9.30;1.00;;;;;;5147692;27;20559;-81
2023/03/10 10:27:46;;;;;;;19.20;17.10;;;9.40;1.00;;;;;;5138924;27;20503;-79
2023/03/10 10:30:36;;;;;;;21.53;18.10;;;9.40;1.00;;;;;;5143704;27;20469;-79
2023/03/10 10:33:06;;;;;;;21.00;18.77;;;9.30;1.00;;;;;;5144547;27;20632;-80
2023/03/10 10:35:35;;;;;;;19.63;17.63;;;9.30;1.00;;;;;;5146014;27;20469;-81
2023/03/10 10:38:05;;;;;;;20.40;18.23;;;9.40;1.00;;;;;;5144456;27;20522;-80
2023/03/10 10:40:35;;;;;;;19.03;17.10;;;9.40;1.00;;;;;;5148017;27;20513;-79
2023/03/10 10:43:06;;;;;;;21.80;17.97;;;9.40;1.00;;;;;;5143941;27;21357;-80
2023/03/10 10:45:35;;;;;;;20.87;17.70;;;9.40;1.00;;;;;;5150059;27;20597;-82
2023/03/10 10:48:04;;;;;;;20.77;17.67;;;9.40;1.00;;;;;;5147984;27;21230;-82
2023/03/10 10:50:32;;;;;;;33.20;29.77;;;9.40;1.00;;;;;;5153787;27;20940;-79
2023/03/10 10:53:19;;;;;;;18.90;16.67;;;9.40;1.00;;;;;;5149029;27;21282;-82
2023/03/10 10:55:58;;;;;;;19.13;17.33;;;9.60;1.00;;;;;;5166163;27;21181;-79
2023/03/10 10:58:30;;;;;;;17.50;15.17;;;9.70;1.00;;;;;;5145258;27;20552;-79
2023/03/10 11:00:58;;;;;;;18.30;16.50;;;9.90;1.00;;;;;;5136115;27;20536;-79
2023/03/10 11:03:30;;;;;;;20.13;18.00;;;9.90;1.00;;;;;;5143742;27;20539;-81
2023/03/10 11:05:59;;;;;;;20.60;18.50;;;9.90;1.00;;;;;;5139524;27;20457;-80
2023/03/10 11:08:36;;;;;;;20.13;17.83;;;9.80;1.00;;;;;;5144052;27;21158;-80
2023/03/10 11:11:19;;;;;;;17.93;16.27;;;9.70;1.00;;;;;;5145679;27;20449;-79
2023/03/10 11:14:07;;;;;;;22.37;19.50;;;9.80;1.00;;;;;;5142275;27;20702;-79
2023/03/10 11:16:45;;;;;;;20.87;18.67;;;10.00;1.00;;;;;;5149647;27;20586;-79
2023/03/10 11:19:17;;;;;;;24.03;18.73;;;10.10;1.00;;;;;;5148401;27;21908;-79
2023/03/10 11:21:50;;;;;;;19.60;17.80;;;10.20;1.00;;;;;;5142685;27;20471;-79
2023/03/10 11:24:24;;;;;;;19.47;17.33;;;10.20;1.00;;;;;;5144565;27;20558;-78
2023/03/10 11:26:57;;;;;;;19.60;17.60;;;10.00;1.00;;;;;;5140719;27;21267;-79
2023/03/10 11:29:47;;;;;;;17.83;16.13;;;9.80;1.00;;;;;;5132594;27;20468;-78
2023/03/10 11:32:24;;;;;;;17.80;16.03;;;9.60;1.00;;;;;;5140288;27;20476;-81
2023/03/10 11:34:53;;;;;;;18.60;15.53;;;9.50;1.00;;;;;;5143808;27;20472;-81
2023/03/10 11:37:28;;;;;;;19.53;17.50;;;9.50;1.00;;;;;;5132983;27;20558;-82
2023/03/10 11:40:07;;;;;;;17.30;15.60;;;9.50;1.00;;;;;;5139915;27;20467;-81
2023/03/10 11:42:41;;;;;;;17.00;15.23;;;9.50;1.00;;;;;;5144388;27;20421;-83
2023/03/10 11:45:24;;;;;;;18.23;16.30;;;9.60;1.00;;;;;;5144663;27;20896;-82
2023/03/10 11:48:00;;;;;;;17.93;16.03;;;9.60;1.00;;;;;;5141173;27;20453;-80
2023/03/10 11:50:39;;;;;;;16.13;14.43;;;9.50;1.00;;;;;;5143232;27;20552;-79
2023/03/10 11:53:13;;;;;;;15.67;14.03;;;9.50;1.00;;;;;;5136058;27;20445;-81
2023/03/10 11:55:43;;;;;;;16.63;15.00;;;9.40;1.00;;;;;;5134135;27;20496;-79
2023/03/10 11:58:21;;;;;;;15.47;13.97;;;9.20;1.00;;;;;;5141161;27;20572;-79
2023/03/10 12:00:52;;;;;;;14.70;13.40;;;9.10;1.00;;;;;;5132659;27;20517;-82
2023/03/10 12:03:24;;;;;;;14.87;13.47;;;9.10;1.00;;;;;;5140133;27;21104;-80
2023/03/10 12:05:58;;;;;;;18.47;14.70;;;9.20;1.00;;;;;;5131527;27;20425;-80
2023/03/10 12:08:29;;;;;;;15.53;13.90;;;9.20;1.00;;;;;;5151386;27;21071;-80
2023/03/10 12:10:59;;;;;;;17.50;15.73;;;9.30;1.00;;;;;;5130377;27;21051;-82
2023/03/10 12:13:30;;;;;;;24.63;18.97;;;9.30;1.00;;;;;;5139392;27;20456;-83
2023/03/10 12:16:00;;;;;;;16.27;14.57;;;9.30;1.00;;;;;;5145563;27;20455;-82
2023/03/10 12:18:28;;;;;;;17.40;15.60;;;9.20;1.00;;;;;;5142594;27;20971;-83
2023/03/10 12:21:17;;;;;;;15.73;14.23;;;9.10;1.00;;;;;;5145831;27;20425;-81
2023/03/10 12:23:46;;;;;;;16.57;14.90;;;8.90;1.00;;;;;;5156613;27;20435;-83
2023/03/10 12:26:13;;;;;;;16.33;14.73;;;9.00;1.00;;;;;;5147483;27;20459;-81
2023/03/10 12:28:41;;;;;;;19.20;17.20;;;9.20;1.00;;;;;;5142642;27;21022;-79
2023/03/10 12:31:10;;;;;;;14.67;13.30;;;9.50;1.00;;;;;;5143936;27;20245;-81
2023/03/10 12:34:13;;;;;;;16.80;15.17;;;9.70;1.00;;;;;;5135930;27;20475;-80
2023/03/10 12:36:45;;;;;;;13.07;10.53;;;9.80;1.00;;;;;;5129768;27;20630;-79
2023/03/10 12:39:31;;;;;;;12.67;10.93;;;9.90;1.00;;;;;;5163484;27;20448;-80
2023/03/10 12:42:00;;;;;;;9.80;8.40;;;9.90;1.00;;;;;;5167795;27;21220;-81
2023/03/10 12:45:01;;;;;;;9.67;8.40;;;9.70;1.00;;;;;;5152136;27;20444;-80
2023/03/10 12:47:42;;;;;;;8.40;7.60;;;9.60;1.00;;;;;;5080281;28;20482;-79
2023/03/10 12:50:26;;;;;;;8.37;7.40;;;9.40;1.00;;;;;;5140356;27;20422;-80
2023/03/10 12:52:59;;;;;;;11.00;9.90;;;9.40;1.00;;;;;;5148809;27;20510;-79
2023/03/10 12:55:28;;;;;;;12.60;9.70;;;9.40;1.00;;;;;;5150177;27;21036;-80
2023/03/10 12:58:02;;;;;;;10.70;9.70;;;9.70;1.00;;;;;;5144726;27;20457;-80
2023/03/10 13:00:38;;;;;;;14.60;13.20;;;10.20;1.00;;;;;;5149869;27;20448;-80